Wilcox, Pennsylvania
Current Conditions -  °F | °C
As of 12:53 PM on Friday 24 Oct 2014 (Local Time) from KBFD Reporting Station
Clear Clear  
Wind Chill: 53°   Ceiling: Unl
Heat Index: 53°   Visibility: 10mi
Dew Point: 30°   Wind: 13mph
Humidity: 41%   Direction: 290°WNW
Pressure: 30"   Gusts: 21mph
Location:  41.58°N, 78.69°W
Report Text: KBFD 241653Z AUTO 29011G18KT 10SM CLR 12/M01 A3000 RMK AO2 SLP163 T01171011
Loading
Personal Weather Stations






























Interactive Weather Map
Tropical Storm Tracking
New forecast layout! Learn more

10-Day Weather Forecast

Advertisements
Track Severe Weather on mobile